Time;durP1;ratioP1;P1;durP2;ratioP2;P2;SDS_P1;SDS_P2;PMS_P1;PMS_P2;Temp;Humidity;BMP_temperature;BMP_pressure;BME280_temperature;BME280_humidity;BME280_pressure;Samples;Min_cycle;Max_cycle;Signal;HPM_P1;HPM_P2
2023/10/08 00:01:19;;;;;;;;;5.00;5.00;;;;;21.09;65.46;100839.34;5073910;27;45524;-75
2023/10/08 00:03:50;;;;;;;;;7.33;6.00;;;;;21.24;65.15;100860.47;5073865;27;46356;-75
2023/10/08 00:06:19;;;;;;;;;5.67;4.67;;;;;21.18;65.26;100849.91;5074808;27;45466;-75
2023/10/08 00:08:45;;;;;;;;;5.00;5.00;;;;;21.20;64.70;100840.16;5053611;27;45411;-75
2023/10/08 00:11:11;;;;;;;;;6.00;6.00;;;;;21.23;64.31;100853.44;5080559;27;45402;-75
2023/10/08 00:13:40;;;;;;;;;7.00;6.33;;;;;21.22;64.87;100859.63;5093008;27;45469;-76
2023/10/08 00:16:11;;;;;;;;;6.33;5.00;;;;;21.13;64.73;100841.09;5088920;27;45430;-75
2023/10/08 00:18:41;;;;;;;;;6.00;6.00;;;;;21.13;64.88;100846.41;5092072;27;45474;-75
2023/10/08 00:23:41;;;;;;;;;6.00;5.67;;;;;21.18;64.88;100856.09;5086134;27;45933;-76
2023/10/08 00:26:08;;;;;;;;;6.00;5.67;;;;;21.18;64.43;100856.09;5077205;27;45552;-76
2023/10/08 00:28:34;;;;;;;;;6.00;6.00;;;;;21.18;64.99;100858.75;5072242;27;45427;-75
2023/10/08 00:31:12;;;;;;;;;7.67;7.33;;;;;21.21;64.49;100857.88;5075580;27;45561;-75
2023/10/08 00:33:39;;;;;;;;;5.00;5.00;;;;;21.18;64.79;100866.72;5071589;27;45421;-75
2023/10/08 00:36:17;;;;;;;;;7.00;7.00;;;;;21.03;64.83;100841.19;5050561;28;45404;-75
2023/10/08 00:38:58;;;;;;;;;7.00;6.33;;;;;21.06;64.85;100856.22;5059488;28;45348;-76
2023/10/08 00:41:28;;;;;;;;;8.33;7.67;;;;;21.03;64.92;100856.25;5065087;28;45515;-76
2023/10/08 00:43:56;;;;;;;;;5.00;5.00;;;;;20.98;65.23;100860.72;5051736;28;47067;-75
2023/10/08 00:48:54;;;;;;;;;6.33;5.33;;;;;20.88;65.50;100837.78;5069828;28;45425;-75
2023/10/08 00:54:09;;;;;;;;;5.33;5.33;;;;;20.82;64.85;100822.78;5063814;28;46319;-76
2023/10/08 00:56:57;;;;;;;;;2.67;2.67;;;;;20.84;64.99;100835.13;5072503;28;45501;-75
2023/10/08 00:59:25;;;;;;;;;6.00;6.00;;;;;20.86;64.47;100833.34;5067443;28;45494;-76
2023/10/08 01:01:52;;;;;;;;;6.00;6.00;;;;;20.98;65.30;100856.25;5071564;28;45367;-75
2023/10/08 01:04:23;;;;;;;;;5.00;5.00;;;;;20.94;65.11;100848.34;5072606;28;45991;-75
2023/10/08 01:06:55;;;;;;;;;7.67;6.67;;;;;20.93;64.70;100849.22;5068943;28;45660;-75
2023/10/08 01:09:21;;;;;;;;;8.33;6.00;;;;;20.93;64.70;100844.81;5075284;28;45453;-75
2023/10/08 01:12:07;;;;;;;;;6.33;6.00;;;;;20.85;65.08;100836.91;5064343;28;45379;-74
2023/10/08 01:14:33;;;;;;;;;8.33;7.33;;;;;20.84;65.12;100839.56;5068820;28;45511;-75
2023/10/08 01:16:59;;;;;;;;;7.67;7.67;;;;;20.74;65.08;100822.81;5058953;28;45799;-76
2023/10/08 01:19:26;;;;;;;;;6.67;5.67;;;;;20.85;64.83;100846.66;5072963;28;46575;-75
2023/10/08 01:21:52;;;;;;;;;7.00;7.00;;;;;20.77;64.78;100838.75;5066498;28;45605;-75
2023/10/08 01:24:19;;;;;;;;;5.33;5.00;;;;;20.78;64.55;100839.63;5052750;28;45575;-75
2023/10/08 01:26:45;;;;;;;;;7.00;6.00;;;;;20.69;65.10;100834.38;5072679;28;45542;-75
2023/10/08 01:29:21;;;;;;;;;9.00;6.67;;;;;20.72;65.05;100831.69;5069133;28;45402;-75
2023/10/08 01:31:54;;;;;;;;;5.67;4.67;;;;;20.72;65.18;100848.50;5043381;28;45472;-75
2023/10/08 01:34:26;;;;;;;;;4.67;4.67;;;;;20.74;65.00;100840.53;5048456;28;46253;-75
2023/10/08 01:36:52;;;;;;;;;7.33;6.00;;;;;20.61;65.04;100810.53;5062643;28;45462;-75
2023/10/08 01:39:18;;;;;;;;;5.67;5.67;;;;;20.52;65.04;100784.91;5067029;28;45350;-75
2023/10/08 01:41:44;;;;;;;;;9.33;8.00;;;;;20.81;64.79;100824.56;5069842;28;45647;-75
2023/10/08 01:44:10;;;;;;;;;7.00;6.00;;;;;20.71;64.88;100811.34;5059395;28;45465;-75
2023/10/08 01:46:36;;;;;;;;;6.67;6.67;;;;;20.78;64.62;100827.22;5042728;28;45571;-75
2023/10/08 01:49:08;;;;;;;;;6.00;6.00;;;;;20.76;64.71;100831.66;5065125;28;45582;-75
2023/10/08 01:51:38;;;;;;;;;6.33;6.00;;;;;20.68;64.44;100812.25;5073734;28;45312;-76
2023/10/08 01:54:25;;;;;;;;;10.00;8.33;;;;;20.69;65.07;100824.66;5066020;28;46286;-75
2023/10/08 01:56:51;;;;;;;;;8.00;8.00;;;;;20.61;64.93;100821.13;5063427;28;45434;-75
2023/10/08 01:59:17;;;;;;;;;8.67;8.00;;;;;20.62;64.76;100823.78;5059423;28;45493;-75
2023/10/08 02:01:45;;;;;;;;;5.67;5.67;;;;;20.62;65.23;100833.53;5067530;28;45541;-75
2023/10/08 02:04:16;;;;;;;;;6.67;6.67;;;;;20.58;65.43;100831.75;5071881;28;45576;-75
2023/10/08 02:06:41;;;;;;;;;10.33;9.00;;;;;20.48;65.29;100814.13;5068711;28;45543;-75
2023/10/08 02:09:07;;;;;;;;;7.00;7.00;;;;;20.53;65.34;100821.19;5056143;28;45416;-75
2023/10/08 02:11:43;;;;;;;;;8.33;8.00;;;;;20.41;65.48;100826.53;5060401;28;45249;-75
2023/10/08 02:14:09;;;;;;;;;7.00;6.67;;;;;20.46;65.36;100830.06;5045535;28;45534;-75
2023/10/08 02:16:37;;;;;;;;;6.00;6.00;;;;;20.45;65.48;100838.91;5067255;28;45463;-75
2023/10/08 02:19:03;;;;;;;;;8.33;7.67;;;;;20.45;65.51;100831.84;5065607;28;45495;-75
2023/10/08 02:21:29;;;;;;;;;10.67;8.33;;;;;20.40;65.72;100820.38;5059168;28;45579;-76
2023/10/08 02:23:56;;;;;;;;;7.67;6.00;;;;;20.21;65.32;100790.44;5070638;28;46200;-75
2023/10/08 02:26:23;;;;;;;;;7.00;6.67;;;;;20.45;65.34;100825.63;5057486;28;45668;-75
2023/10/08 02:28:51;;;;;;;;;8.33;8.33;;;;;20.49;65.36;100829.16;5070847;28;45494;-75
2023/10/08 02:31:18;;;;;;;;;7.00;6.33;;;;;20.49;65.37;100826.50;5058402;28;45298;-76
2023/10/08 02:33:44;;;;;;;;;8.33;6.00;;;;;20.31;65.26;100801.84;5057520;28;45692;-75
2023/10/08 02:36:09;;;;;;;;;9.33;7.33;;;;;20.43;65.27;100820.38;5074501;27;45450;-75
2023/10/08 02:38:37;;;;;;;;;6.67;5.67;;;;;20.46;65.51;100822.09;5077196;28;45358;-75
2023/10/08 02:41:06;;;;;;;;;8.33;7.00;;;;;20.47;65.15;100829.16;5075898;28;45481;-75
2023/10/08 02:43:34;;;;;;;;;8.33;7.00;;;;;20.40;65.91;100819.50;5050503;28;45485;-75
2023/10/08 02:46:00;;;;;;;;;7.00;7.00;;;;;20.34;65.51;100812.44;5057743;28;45443;-75
2023/10/08 02:48:27;;;;;;;;;8.67;6.67;;;;;20.37;65.23;100809.78;5057597;28;45434;-75
2023/10/08 02:50:54;;;;;;;;;8.00;8.00;;;;;20.31;65.32;100803.63;5057681;28;45359;-75
2023/10/08 02:53:23;;;;;;;;;10.00;9.33;;;;;20.36;65.19;100809.78;5057636;28;46393;-75
2023/10/08 02:55:50;;;;;;;;;9.67;9.00;;;;;20.38;65.24;100818.63;5057758;28;45478;-76
2023/10/08 02:58:16;;;;;;;;;10.67;10.00;;;;;20.32;65.46;100816.00;5057546;28;45447;-75
2023/10/08 03:00:49;;;;;;;;;6.67;6.67;;;;;20.32;65.85;100816.88;5057974;28;45538;-76
2023/10/08 03:03:18;;;;;;;;;9.67;8.67;;;;;20.30;65.33;100820.44;5039341;28;45324;-75
2023/10/08 03:05:49;;;;;;;;;8.67;8.67;;;;;20.25;65.23;100812.50;5057335;28;45393;-76
2023/10/08 03:08:22;;;;;;;;;7.67;7.00;;;;;20.26;65.53;100825.75;5071194;28;46557;-75
2023/10/08 03:10:50;;;;;;;;;8.67;8.00;;;;;20.22;65.61;100826.66;5068796;27;45323;-75
2023/10/08 03:13:17;;;;;;;;;8.33;8.33;;;;;20.03;65.71;100796.72;5056532;28;45500;-75
2023/10/08 03:15:57;;;;;;;;;8.00;7.33;;;;;20.18;65.88;100829.34;5050418;28;45485;-75
2023/10/08 03:18:24;;;;;;;;;7.67;6.67;;;;;20.18;65.70;100824.91;5060777;28;45306;-75
2023/10/08 03:20:50;;;;;;;;;11.00;9.33;;;;;20.12;65.59;100819.66;5058919;28;45690;-75
2023/10/08 03:23:23;;;;;;;;;8.67;8.67;;;;;20.12;65.47;100816.13;5054658;28;46216;-75
2023/10/08 03:26:00;;;;;;;;;9.00;8.33;;;;;19.99;65.72;100808.19;5043151;28;45392;-75
2023/10/08 03:28:34;;;;;;;;;9.33;8.67;;;;;20.10;65.99;100826.72;5039720;28;45475;-75
2023/10/08 03:31:04;;;;;;;;;12.67;10.67;;;;;20.01;66.28;100834.72;5078012;28;45665;-76
2023/10/08 03:33:37;;;;;;;;;8.33;8.33;;;;;19.97;66.12;100828.53;5075920;28;47105;-76
2023/10/08 03:36:21;;;;;;;;;10.33;9.33;;;;;19.96;66.05;100823.25;5076192;28;45563;-75
2023/10/08 03:38:50;;;;;;;;;8.67;8.67;;;;;20.00;65.87;100825.00;5043845;28;45406;-75
2023/10/08 03:41:29;;;;;;;;;11.33;11.00;;;;;20.00;65.93;100823.22;5074673;27;45593;-75
2023/10/08 03:44:02;;;;;;;;;11.00;9.67;;;;;19.96;66.07;100817.97;5075676;28;45382;-75
2023/10/08 03:46:29;;;;;;;;;12.33;11.67;;;;;19.94;66.22;100828.56;5061726;28;45442;-75
2023/10/08 03:48:57;;;;;;;;;11.33;11.33;;;;;20.03;65.74;100822.31;5052852;28;45486;-75
2023/10/08 03:51:27;;;;;;;;;9.33;7.67;;;;;19.90;65.91;100810.91;5052266;28;45651;-76
2023/10/08 03:54:15;;;;;;;;;11.33;10.67;;;;;19.93;65.58;100821.47;5038547;28;45574;-75
2023/10/08 03:56:45;;;;;;;;;10.00;9.00;;;;;19.96;65.84;100829.44;5056606;28;45531;-75
2023/10/08 03:59:13;;;;;;;;;10.67;9.67;;;;;19.79;66.15;100807.41;5072051;28;45523;-75
2023/10/08 04:01:42;;;;;;;;;9.00;8.67;;;;;19.94;65.77;100828.56;5056862;28;45427;-75
2023/10/08 04:04:13;;;;;;;;;11.00;10.00;;;;;19.90;66.16;100831.25;5055690;28;46203;-76
2023/10/08 04:06:48;;;;;;;;;12.00;11.67;;;;;19.90;66.25;100826.81;5048370;28;45603;-75
2023/10/08 04:11:53;;;;;;;;;11.00;10.00;;;;;19.89;66.49;100825.03;5056522;28;45500;-75
2023/10/08 04:14:20;;;;;;;;;9.33;9.33;;;;;19.91;66.38;100825.91;5051227;28;46807;-75
2023/10/08 04:16:51;;;;;;;;;13.00;11.00;;;;;19.87;66.54;100816.22;5068528;28;45486;-75
2023/10/08 04:19:21;;;;;;;;;10.33;10.33;;;;;19.90;66.17;100823.28;5076979;28;45802;-76
2023/10/08 04:21:53;;;;;;;;;13.00;11.00;;;;;19.76;66.76;100807.44;5038437;28;45529;-75
2023/10/08 04:24:28;;;;;;;;;15.25;12.50;;;;;19.81;66.56;100810.94;5075716;28;46259;-75
2023/10/08 04:26:56;;;;;;;;;12.67;12.00;;;;;19.86;66.78;100819.75;5039291;28;45531;-74
2023/10/08 04:29:22;;;;;;;;;11.00;10.00;;;;;19.89;66.42;100826.81;5075784;28;45599;-75
2023/10/08 04:32:00;;;;;;;;;10.67;9.67;;;;;19.89;66.35;100816.22;5075088;28;45422;-75
2023/10/08 04:34:27;;;;;;;;;12.33;10.67;;;;;19.88;66.53;100819.75;5056145;28;47343;-76
2023/10/08 04:37:35;;;;;;;;;13.50;12.00;;;;;19.92;66.57;100824.16;5072708;28;45613;-74
2023/10/08 04:39:48;;;;;;;;;12.00;10.00;;;;;19.89;66.31;100817.06;5071776;28;45432;-74
2023/10/08 04:42:25;;;;;;;;;12.33;12.33;;;;;19.91;66.48;100819.72;5075904;28;45443;-74
2023/10/08 04:44:52;;;;;;;;;12.00;12.00;;;;;19.85;66.00;100807.38;5070679;28;45561;-74
2023/10/08 04:47:34;;;;;;;;;13.25;12.00;;;;;19.79;65.98;100800.31;5078246;28;45324;-75
2023/10/08 04:50:00;;;;;;;;;14.00;13.00;;;;;19.91;65.79;100819.72;5076787;28;45526;-75
2023/10/08 04:52:27;;;;;;;;;13.33;12.00;;;;;19.85;66.11;100817.97;5077000;28;45568;-74
2023/10/08 04:54:54;;;;;;;;;14.00;14.00;;;;;19.87;65.84;100816.22;5076579;28;45589;-74
2023/10/08 04:57:25;;;;;;;;;12.33;12.33;;;;;19.94;66.17;100831.22;5053564;28;45454;-74
2023/10/08 04:59:53;;;;;;;;;12.00;12.00;;;;;19.93;66.17;100821.47;5057973;28;45439;-74
2023/10/08 05:02:44;;;;;;;;;15.75;13.25;;;;;19.91;66.28;100825.03;5077405;28;45394;-75
2023/10/08 05:15:41;;;;;;;;;14.75;14.25;;;;;19.79;66.51;100833.91;5074192;28;46010;-74
2023/10/08 05:18:23;;;;;;;;;15.25;15.25;;;;;19.79;66.67;100831.25;5076234;28;45527;-74
2023/10/08 05:29:00;;;;;;;;;13.75;13.50;;;;;19.74;67.02;100831.28;5073640;28;45355;-75
2023/10/08 05:31:59;;;;;;;;;17.25;15.75;;;;;19.66;66.94;100817.16;5077355;28;45457;-74
2023/10/08 05:34:22;;;;;;;;;15.00;14.75;;;;;19.64;66.86;100817.16;5074901;28;45842;-75
2023/10/08 05:37:32;;;;;;;;;13.75;13.25;;;;;19.72;66.78;100832.19;5071977;28;46699;-75
2023/10/08 05:39:42;;;;;;;;;14.75;14.75;;;;;19.61;66.70;100827.75;5073671;28;46496;-75
2023/10/08 05:52:53;;;;;;;;;16.25;14.00;;;;;19.66;67.10;100843.66;5075409;28;45580;-75
2023/10/08 05:55:28;;;;;;;;;17.75;13.75;;;;;19.64;66.92;100843.66;5058255;28;45723;-75
2023/10/08 05:58:13;;;;;;;;;15.00;13.50;;;;;19.64;67.29;100845.44;5073716;28;46042;-75
2023/10/08 06:01:01;;;;;;;;;16.25;15.50;;;;;19.56;66.81;100826.88;5073630;28;45475;-75
2023/10/08 06:03:32;;;;;;;;;18.25;16.50;;;;;19.32;66.89;100780.16;5073759;28;45462;-75
2023/10/08 06:06:22;;;;;;;;;17.75;16.75;;;;;19.66;66.69;100839.22;5074523;28;45379;-75
2023/10/08 06:10:01;;;;;;;;;22.00;20.75;;;;;19.66;66.64;100839.22;5075022;28;46131;-75
2023/10/08 06:12:06;;;;;;;;;17.25;17.00;;;;;19.79;66.57;100850.69;5063015;28;45548;-75
2023/10/08 06:17:34;;;;;;;;;16.00;16.00;;;;;19.88;66.12;100859.53;5074758;27;45480;-75
2023/10/08 06:20:09;;;;;;;;;18.25;16.75;;;;;19.83;66.08;100846.28;5075012;28;46288;-75
2023/10/08 06:22:35;;;;;;;;;15.50;14.50;;;;;19.91;66.02;100856.84;5074299;28;45614;-75
2023/10/08 06:25:17;;;;;;;;;15.25;14.75;;;;;19.99;66.21;100863.00;5076115;28;46136;-75
2023/10/08 06:27:44;;;;;;;;;15.50;14.50;;;;;20.07;65.70;100869.16;5050805;28;45637;-75
2023/10/08 06:30:16;;;;;;;;;17.25;15.75;;;;;19.96;65.74;100848.00;5074091;28;45493;-75
2023/10/08 06:32:45;;;;;;;;;14.50;14.50;;;;;20.10;65.41;100866.50;5058099;28;45394;-76
2023/10/08 06:35:17;;;;;;;;;15.25;13.75;;;;;20.12;65.89;100858.56;5063055;28;45761;-75
2023/10/08 06:37:49;;;;;;;;;11.00;10.00;;;;;20.14;65.73;100870.03;5072477;27;45497;-75
2023/10/08 06:43:11;;;;;;;;;13.00;12.75;;;;;20.22;65.10;100870.88;5078554;27;46010;-74
2023/10/08 06:45:39;;;;;;;;;15.00;13.50;;;;;20.25;65.35;100863.78;5071914;27;45336;-75
2023/10/08 06:48:06;;;;;;;;;11.25;9.75;;;;;20.27;64.76;100854.06;5066952;27;45457;-75
2023/10/08 06:50:36;;;;;;;;;14.67;14.67;;;;;20.46;64.95;100876.06;5065735;27;46636;-75
2023/10/08 06:53:06;;;;;;;;;14.67;13.67;;;;;20.52;64.56;100874.25;5083509;27;45323;-75
2023/10/08 06:55:33;;;;;;;;;15.67;15.67;;;;;20.49;64.44;100871.63;5066784;27;45598;-74
2023/10/08 06:58:00;;;;;;;;;16.67;14.00;;;;;20.58;64.46;100882.19;5064535;27;45568;-74
2023/10/08 07:00:39;;;;;;;;;13.33;13.33;;;;;20.61;64.28;100876.88;5066854;27;45757;-75
2023/10/08 07:03:07;;;;;;;;;15.50;15.50;;;;;20.72;64.36;100885.66;5070112;27;45845;-76
2023/10/08 07:05:36;;;;;;;;;16.75;15.50;;;;;20.76;64.58;100889.19;5084785;27;45327;-75
2023/10/08 07:08:06;;;;;;;;;14.00;13.67;;;;;20.77;63.89;100896.25;5067592;27;45549;-75
2023/10/08 07:10:35;;;;;;;;;13.67;13.67;;;;;20.79;64.34;100887.41;5072671;27;46487;-75
2023/10/08 07:13:07;;;;;;;;;17.25;15.75;;;;;20.84;64.04;100904.16;5082955;27;45485;-75
2023/10/08 07:15:38;;;;;;;;;16.50;15.25;;;;;20.96;64.05;100894.38;5082252;27;45847;-74
2023/10/08 07:18:09;;;;;;;;;15.25;15.00;;;;;20.97;63.85;100881.09;5069850;27;45376;-75
2023/10/08 07:20:41;;;;;;;;;16.50;16.25;;;;;21.13;63.25;100889.81;5087628;27;45419;-74
2023/10/08 07:23:27;;;;;;;;;16.25;14.50;;;;;21.33;63.21;100902.94;5086998;27;45513;-74
2023/10/08 07:26:23;;;;;;;;;16.50;15.50;;;;;21.51;62.88;100901.03;5066663;27;45353;-74
2023/10/08 07:28:51;;;;;;;;;16.50;14.75;;;;;21.62;62.44;100902.66;5064544;27;45637;-74
2023/10/08 07:31:22;;;;;;;;;13.67;13.00;;;;;21.78;62.49;100906.06;5087684;27;46141;-74
2023/10/08 07:33:56;;;;;;;;;14.33;14.00;;;;;21.93;61.94;100898.81;5065967;27;46165;-73
2023/10/08 07:36:30;;;;;;;;;14.67;13.33;;;;;23.19;60.73;100903.34;5083604;27;45516;-73
2023/10/08 07:38:57;;;;;;;;;13.67;13.33;;;;;25.13;55.14;100888.75;5086019;27;45506;-74
2023/10/08 07:41:25;;;;;;;;;14.67;12.67;;;;;27.05;51.27;100881.50;5085615;27;45466;-73
2023/10/08 07:43:57;;;;;;;;;15.00;15.00;;;;;28.65;49.15;100897.25;5073550;27;45390;-75
2023/10/08 07:46:23;;;;;;;;;18.67;17.67;;;;;29.76;44.97;100898.94;5085038;27;45441;-74
2023/10/08 07:48:50;;;;;;;;;11.67;11.67;;;;;30.47;43.10;100883.13;5083700;27;45475;-75
2023/10/08 07:51:21;;;;;;;;;12.00;12.00;;;;;31.06;41.14;100888.41;5048419;28;46318;-75
2023/10/08 07:53:48;;;;;;;;;15.00;14.00;;;;;32.00;41.18;100897.94;5053466;28;45506;-74
2023/10/08 07:56:14;;;;;;;;;12.00;11.00;;;;;32.92;39.92;100910.88;5057884;28;46274;-76
2023/10/08 07:58:40;;;;;;;;;12.67;12.00;;;;;33.73;38.04;100913.34;5039288;28;45656;-76
2023/10/08 08:01:09;;;;;;;;;13.00;12.33;;;;;34.42;36.92;100908.13;5038823;28;46707;-75
2023/10/08 08:03:36;;;;;;;;;15.00;13.67;;;;;34.78;36.18;100912.16;5065534;27;45465;-75
2023/10/08 08:06:06;;;;;;;;;13.00;13.00;;;;;35.25;36.39;100902.72;5085096;27;45496;-75
2023/10/08 08:08:33;;;;;;;;;14.00;13.67;;;;;35.84;35.14;100921.31;5086709;27;46713;-74
2023/10/08 08:11:11;;;;;;;;;14.33;13.33;;;;;36.41;34.45;100918.16;5081000;27;46054;-76
2023/10/08 08:13:38;;;;;;;;;13.67;12.00;;;;;36.82;33.48;100918.81;5082212;27;45605;-75
2023/10/08 08:16:16;;;;;;;;;11.00;11.00;;;;;37.08;33.15;100924.16;5067121;27;45293;-75
2023/10/08 08:18:57;;;;;;;;;12.00;11.67;;;;;36.88;32.64;100926.53;5065252;27;45446;-76
2023/10/08 08:21:23;;;;;;;;;12.33;11.67;;;;;37.13;32.15;100931.03;5085270;27;46241;-75
2023/10/08 08:23:49;;;;;;;;;10.00;9.00;;;;;37.54;32.27;100931.53;5082444;27;45430;-75
2023/10/08 08:26:29;;;;;;;;;9.67;9.67;;;;;37.64;32.24;100913.50;5057059;28;45410;-76
2023/10/08 08:29:01;;;;;;;;;12.33;12.33;;;;;38.14;30.98;100937.78;5059142;28;45483;-76
2023/10/08 08:31:46;;;;;;;;;13.00;13.00;;;;;38.05;31.00;100939.38;5073534;28;46056;-78
2023/10/08 08:34:19;;;;;;;;;14.00;12.67;;;;;38.20;31.49;100940.00;5086237;27;45497;-74
2023/10/08 08:36:49;;;;;;;;;10.67;10.33;;;;;38.45;31.13;100941.63;5088680;27;45569;-75
2023/10/08 08:39:32;;;;;;;;;11.33;10.67;;;;;38.59;31.48;100935.06;5075120;27;45499;-75
2023/10/08 08:42:04;;;;;;;;;9.33;9.33;;;;;38.59;31.48;100946.84;5092131;27;46421;-75
2023/10/08 08:44:32;;;;;;;;;9.00;9.00;;;;;39.11;31.45;100946.25;5095853;27;45469;-75
2023/10/08 08:47:04;;;;;;;;;11.33;10.67;;;;;39.16;30.98;100941.28;5089923;27;45517;-75
2023/10/08 08:49:39;;;;;;;;;9.67;9.67;;;;;38.78;31.11;100948.94;5096586;27;45404;-75
2023/10/08 08:52:05;;;;;;;;;10.50;10.00;;;;;38.60;32.16;100945.00;5059984;27;46216;-76
2023/10/08 08:54:32;;;;;;;;;11.67;9.00;;;;;38.63;32.02;100928.34;5064105;28;45476;-75
2023/10/08 08:57:04;;;;;;;;;12.67;11.33;;;;;39.08;29.74;100941.09;5072730;27;45484;-76
2023/10/08 08:59:30;;;;;;;;;10.00;10.00;;;;;39.18;30.29;100944.75;5062246;27;45455;-75
2023/10/08 09:01:59;;;;;;;;;10.67;10.67;;;;;39.14;29.98;100941.41;5058082;28;47778;-75
2023/10/08 09:04:53;;;;;;;;;10.67;10.67;;;;;38.99;29.93;100948.16;5080974;27;45687;-75
2023/10/08 09:07:21;;;;;;;;;11.67;11.33;;;;;39.06;30.60;100943.03;5087425;27;45426;-77
2023/10/08 09:09:49;;;;;;;;;10.67;10.33;;;;;39.19;30.76;100954.69;5081883;27;45502;-78
2023/10/08 09:12:17;;;;;;;;;9.00;9.00;;;;;39.22;30.87;100934.41;5078163;27;45460;-77
2023/10/08 09:14:46;;;;;;;;;10.00;9.33;;;;;39.44;30.32;100938.97;5062133;28;45493;-77
2023/10/08 09:17:15;;;;;;;;;13.00;12.00;;;;;39.61;30.41;100949.28;5080348;28;45378;-79
2023/10/08 09:19:40;;;;;;;;;10.33;9.33;;;;;39.73;30.22;100944.63;5076554;27;45603;-78
2023/10/08 09:22:08;;;;;;;;;12.00;12.00;;;;;39.96;30.76;100956.31;5066201;28;46095;-77
2023/10/08 09:24:38;;;;;;;;;12.33;12.33;;;;;39.98;30.81;100948.84;5087779;27;45493;-74
2023/10/08 09:27:08;;;;;;;;;10.00;9.67;;;;;39.97;30.61;100955.31;5084485;27;45507;-78
2023/10/08 09:29:41;;;;;;;;;11.67;11.33;;;;;39.95;32.02;100957.31;5083877;27;45430;-77
2023/10/08 09:32:13;;;;;;;;;12.00;12.00;;;;;39.69;31.75;100949.50;5070037;27;46746;-77
2023/10/08 09:34:40;;;;;;;;;10.00;9.00;;;;;39.95;32.42;100946.38;5090086;27;45541;-76
2023/10/08 09:37:07;;;;;;;;;11.33;10.33;;;;;39.90;31.57;100933.09;5078075;27;45505;-76
2023/10/08 09:39:42;;;;;;;;;13.00;11.00;;;;;40.03;30.70;100953.91;5062207;28;45493;-77
2023/10/08 09:42:14;;;;;;;;;10.33;10.33;;;;;39.89;30.15;100939.59;5067190;28;46785;-78
2023/10/08 09:44:42;;;;;;;;;9.67;9.67;;;;;39.90;30.96;100921.31;5077844;27;45379;-79
2023/10/08 09:47:14;;;;;;;;;9.67;9.67;;;;;39.95;31.46;100932.69;5077953;28;45328;-75
2023/10/08 09:49:51;;;;;;;;;10.00;9.67;;;;;40.24;30.53;100942.94;5078017;28;45457;-73
2023/10/08 09:52:28;;;;;;;;;8.00;7.00;;;;;40.02;30.38;100935.78;5059347;28;45454;-73
2023/10/08 09:55:10;;;;;;;;;10.67;10.33;;;;;40.10;31.66;100942.28;5056818;28;45500;-77
2023/10/08 09:57:39;;;;;;;;;9.33;9.33;;;;;40.11;30.45;100938.56;5086445;27;45565;-76
2023/10/08 10:00:14;;;;;;;;;11.33;10.67;;;;;40.07;30.74;100925.28;5059822;27;45607;-79
2023/10/08 10:02:43;;;;;;;;;11.33;10.67;;;;;40.26;30.85;100924.50;5058005;28;45491;-80
2023/10/08 10:05:12;;;;;;;;;10.33;10.00;;;;;40.37;30.90;100924.41;5039722;28;45731;-80
2023/10/08 10:07:43;;;;;;;;;13.67;11.67;;;;;40.53;32.03;100934.84;5058207;28;45388;-78
2023/10/08 10:10:38;;;;;;;;;17.00;16.33;;;;;40.44;30.91;100922.88;5065084;28;45402;-74
2023/10/08 10:13:12;;;;;;;;;14.33;14.00;;;;;40.28;31.92;100920.63;5053600;28;47164;-78
2023/10/08 10:15:47;;;;;;;;;13.33;13.00;;;;;40.06;31.97;100916.19;5077318;27;45484;-75
2023/10/08 10:18:21;;;;;;;;;11.67;11.33;;;;;40.15;32.28;100925.44;5077557;28;45514;-78
2023/10/08 10:21:03;;;;;;;;;13.33;13.00;;;;;40.00;31.44;100922.22;5064327;28;45402;-75
2023/10/08 10:23:45;;;;;;;;;11.67;11.00;;;;;39.93;32.06;100915.56;5073738;28;46390;-76
2023/10/08 10:26:35;;;;;;;;;14.67;14.00;;;;;39.80;32.27;100926.69;5079991;27;45503;-76
2023/10/08 10:29:10;;;;;;;;;14.00;14.00;;;;;39.70;31.94;100926.63;5058384;28;45469;-81
2023/10/08 10:31:37;;;;;;;;;14.33;13.67;;;;;39.63;32.35;100919.09;5076310;27;45604;-81
2023/10/08 10:34:08;;;;;;;;;12.00;11.00;;;;;39.56;32.52;100924.22;5074272;28;46584;-79
2023/10/08 10:36:35;;;;;;;;;15.67;13.33;;;;;39.45;32.77;100916.09;5077677;28;45461;-80
2023/10/08 10:39:02;;;;;;;;;15.00;14.33;;;;;39.43;32.18;100923.56;5077679;28;45450;-81
2023/10/08 10:41:27;;;;;;;;;7.67;7.00;;;;;39.24;32.82;100925.09;5078318;27;45509;-81
2023/10/08 10:43:53;;;;;;;;;18.67;18.67;;;;;38.88;32.37;100905.34;5058425;28;45612;-81
2023/10/08 10:46:41;;;;;;;;;14.00;12.00;;;;;38.77;31.53;100927.22;5077873;28;45504;-81
2023/10/08 10:51:42;;;;;;;;;15.00;14.00;;;;;38.35;31.21;100905.16;5078119;28;45543;-80
2023/10/08 10:54:07;;;;;;;;;13.33;13.33;;;;;38.40;31.29;100927.47;5077776;27;46029;-81
2023/10/08 10:56:40;;;;;;;;;11.33;11.00;;;;;38.30;30.96;100921.03;5059155;28;45475;-81
2023/10/08 10:59:15;;;;;;;;;11.33;10.33;;;;;38.14;31.44;100926.88;5057287;28;45555;-81
2023/10/08 11:02:05;;;;;;;;;13.33;11.33;;;;;38.01;30.38;100907.88;5064292;28;45327;-81
2023/10/08 11:04:31;;;;;;;;;11.33;11.33;;;;;37.81;32.26;100932.13;5064033;28;45967;-81
2023/10/08 11:07:00;;;;;;;;;16.67;15.67;;;;;37.76;33.08;100920.75;5075835;28;45384;-81
2023/10/08 11:09:38;;;;;;;;;18.33;17.67;;;;;37.68;33.47;100923.19;5071007;28;45490;-81
2023/10/08 11:12:12;;;;;;;;;17.00;15.67;;;;;37.57;33.64;100913.09;5070169;28;45617;-81
2023/10/08 11:14:42;;;;;;;;;28.50;26.75;;;;;37.53;33.57;100910.75;5053723;28;47181;-79
2023/10/08 11:17:17;;;;;;;;;14.33;13.00;;;;;37.53;34.70;100916.19;5076379;28;45494;-79
2023/10/08 11:19:48;;;;;;;;;29.00;28.25;;;;;37.37;34.78;100911.94;5044923;28;45583;-79
2023/10/08 11:22:18;;;;;;;;;13.33;13.33;;;;;37.30;34.48;100901.63;5052788;28;45368;-79
2023/10/08 11:24:53;;;;;;;;;17.33;17.33;;;;;37.30;34.38;100893.44;5075134;27;45406;-79
2023/10/08 11:27:29;;;;;;;;;34.00;29.25;;;;;37.30;34.17;100915.25;5076619;28;45242;-79
2023/10/08 11:30:00;;;;;;;;;11.67;11.33;;;;;37.15;33.04;100909.13;5045315;28;45261;-79
2023/10/08 11:32:27;;;;;;;;;14.67;14.33;;;;;36.94;32.42;100882.50;5066027;28;45474;-79
2023/10/08 11:35:00;;;;;;;;;10.67;10.67;;;;;36.93;31.92;100893.50;5047648;28;45457;-79
2023/10/08 11:37:35;;;;;;;;;18.00;17.00;;;;;36.92;32.42;100905.38;5067144;28;45455;-79
2023/10/08 11:40:09;;;;;;;;;32.00;29.50;;;;;36.83;32.56;100910.53;5075870;28;45565;-79
2023/10/08 11:45:23;;;;;;;;;30.75;28.25;;;;;36.60;32.94;100912.22;5068179;28;45866;-79
2023/10/08 11:47:55;;;;;;;;;12.33;11.33;;;;;36.48;32.39;100904.97;5067243;28;45416;-79
2023/10/08 11:50:32;;;;;;;;;16.00;15.33;;;;;36.31;32.18;100886.28;5076205;28;45472;-79
2023/10/08 11:53:08;;;;;;;;;15.00;13.00;;;;;36.36;33.48;100903.16;5059346;28;45448;-79
2023/10/08 11:55:36;;;;;;;;;16.00;13.67;;;;;36.35;33.55;100890.50;5063749;28;46147;-79
2023/10/08 11:58:17;;;;;;;;;9.67;9.67;;;;;36.30;33.06;100896.28;5068015;28;45509;-79
2023/10/08 12:00:51;;;;;;;;;12.67;11.67;;;;;36.18;33.75;100895.34;5059665;28;45470;-79
2023/10/08 12:03:18;;;;;;;;;12.67;12.00;;;;;35.99;33.16;100882.19;5068589;28;45457;-79
2023/10/08 12:05:48;;;;;;;;;12.00;11.33;;;;;36.01;33.67;100892.91;5073996;28;45588;-79
2023/10/08 12:08:20;;;;;;;;;19.67;17.67;;;;;36.05;33.89;100883.56;5063844;28;45335;-79
2023/10/08 12:10:48;;;;;;;;;18.33;17.33;;;;;35.96;34.68;100868.78;5079178;27;45351;-80
2023/10/08 12:13:18;;;;;;;;;14.00;13.67;;;;;36.07;34.89;100886.19;5074489;28;45391;-80
2023/10/08 12:15:44;;;;;;;;;14.67;14.67;;;;;35.93;35.38;100870.84;5060095;28;45597;-80
2023/10/08 12:18:26;;;;;;;;;14.00;13.00;;;;;35.80;36.15;100879.88;5064919;28;45664;-80
2023/10/08 12:20:53;;;;;;;;;12.67;12.00;;;;;35.62;35.98;100881.16;5068140;28;45327;-80
2023/10/08 12:23:26;;;;;;;;;10.00;10.00;;;;;35.56;36.34;100882.47;5066604;28;45549;-80
2023/10/08 12:25:56;;;;;;;;;12.33;11.67;;;;;35.45;36.86;100880.50;5067485;28;46419;-80